Time;durP1;ratioP1;P1;durP2;ratioP2;P2;SDS_P1;SDS_P2;PMS_P1;PMS_P2;Temp;Humidity;BMP_temperature;BMP_pressure;BME280_temperature;BME280_humidity;BME280_pressure;Samples;Min_cycle;Max_cycle;Signal;HPM_P1;HPM_P2
2022/01/30 00:00:34;;;;;;;11.48;9.63;;;;;;;18.48;37.85;101807.63;5012795;28;20501;-81
2022/01/30 00:03:02;;;;;;;10.57;9.48;;;;;;;18.48;37.79;101801.41;5012566;28;20046;-80
2022/01/30 00:05:30;;;;;;;13.23;10.27;;;;;;;18.49;37.96;101813.84;5105021;28;20043;-81
2022/01/30 00:07:57;;;;;;;11.45;9.68;;;;;;;18.48;37.87;101804.09;5051818;28;20061;-81
2022/01/30 00:10:25;;;;;;;12.88;9.52;;;;;;;18.48;37.79;101793.38;5013293;28;20049;-80
2022/01/30 00:12:56;;;;;;;12.43;10.27;;;;;;;18.50;37.93;101796.78;5012979;28;20042;-81
2022/01/30 00:15:36;;;;;;;14.45;11.32;;;;;;;18.50;37.80;101783.38;5013605;28;20056;-82
2022/01/30 00:23:41;;;;;;;11.43;10.23;;;;;;;18.52;37.51;101781.47;5013239;28;20091;-82
2022/01/30 00:26:09;;;;;;;;;;;;;;;18.53;37.52;101775.13;5013700;28;20462;-82
2022/01/30 00:28:37;;;;;;;11.93;9.73;;;;;;;18.52;37.53;101770.75;5011307;28;19925;-82
2022/01/30 00:31:05;;;;;;;11.68;10.18;;;;;;;18.52;37.45;101776.97;5011439;28;20042;-81
2022/01/30 00:33:32;;;;;;;10.63;9.52;;;;;;;18.53;37.28;101767.94;5011103;28;20409;-82
2022/01/30 00:36:00;;;;;;;12.93;9.18;;;;;;;18.53;37.19;101769.78;5012770;28;20057;-82
2022/01/30 00:38:27;;;;;;;11.65;9.57;;;;;;;18.54;37.40;101766.13;5010492;28;20053;-82
2022/01/30 00:40:55;;;;;;;11.40;9.40;;;;;;;18.54;37.39;101772.34;5013289;28;20046;-82
2022/01/30 00:43:23;;;;;;;12.38;9.20;;;;;;;18.54;37.39;101756.25;5010967;28;20057;-82
2022/01/30 00:45:51;;;;;;;11.88;9.23;;;;;;;18.55;37.28;101754.41;5011237;28;20542;-82
2022/01/30 00:48:18;;;;;;;11.23;9.88;;;;;;;18.56;37.28;101756.16;5010898;28;20057;-82
2022/01/30 00:50:46;;;;;;;12.55;8.57;;;;;;;18.57;37.26;101760.56;5010967;28;20050;-82
2022/01/30 00:53:15;;;;;;;9.20;8.30;;;;;;;18.57;37.45;101754.34;5010888;28;20049;-82
2022/01/30 00:55:44;;;;;;;13.50;9.20;;;;;;;18.57;37.28;101739.09;5028426;27;20433;-82
2022/01/30 00:58:12;;;;;;;9.80;8.55;;;;;;;18.58;37.37;101735.44;5010848;28;20493;-82
2022/01/30 01:00:40;;;;;;;10.43;8.63;;;;;;;18.58;37.21;101727.41;5010371;28;20064;-82
2022/01/30 01:03:08;;;;;;;9.52;8.55;;;;;;;18.59;37.36;101729.09;5012054;28;20490;-82
2022/01/30 01:05:39;;;;;;;11.77;9.13;;;;;;;18.59;37.28;101715.69;5012021;28;20099;-82
2022/01/30 01:11:26;;;;;;;9.88;8.27;;;;;;;18.60;37.28;101706.72;5014399;28;20057;-82
2022/01/30 01:24:35;;;;;;;9.65;8.20;;;;;;;18.62;37.28;101685.13;5010383;28;20050;-82
2022/01/30 01:27:02;;;;;;;9.20;8.15;;;;;;;18.63;37.40;101679.66;5010383;28;20051;-82
2022/01/30 01:29:30;;;;;;;9.77;8.48;;;;;;;18.62;37.15;101669.91;5010249;28;20065;-81
2022/01/30 01:31:57;;;;;;;9.82;8.63;;;;;;;18.63;37.32;101666.25;5010381;28;20054;-81
2022/01/30 01:36:52;;;;;;;9.23;8.13;;;;;;;18.64;37.11;101673.34;5012323;28;20461;-81
2022/01/30 01:39:19;;;;;;;10.93;8.23;;;;;;;18.65;37.18;101676.91;5010019;28;20053;-81
2022/01/30 01:41:46;;;;;;;9.40;8.48;;;;;;;18.65;37.13;101658.13;5011590;28;20048;-81
2022/01/30 01:44:20;;;;;;;9.25;8.27;;;;;;;18.66;37.23;101657.16;5009944;28;20053;-81
2022/01/30 01:46:48;;;;;;;8.82;7.70;;;;;;;18.66;37.08;101646.41;5010909;28;20054;-80
2022/01/30 01:49:21;;;;;;;8.65;7.10;;;;;;;18.66;37.00;101633.84;5011251;28;20054;-80
2022/01/30 01:52:01;;;;;;;12.30;7.80;;;;;;;18.65;37.08;101639.34;5010084;28;20498;-80
2022/01/30 01:54:29;;;;;;;9.90;7.97;;;;;;;18.64;36.98;101619.72;5010036;28;20053;-81
2022/01/30 01:56:57;;;;;;;8.50;7.63;;;;;;;18.64;37.08;101621.53;5009925;28;20050;-81
2022/01/30 01:59:34;;;;;;;10.40;7.75;;;;;;;18.65;37.18;101616.06;5009828;28;20054;-81
2022/01/30 02:02:26;;;;;;;8.50;7.60;;;;;;;18.63;37.04;101609.94;5010125;28;20054;-81
2022/01/30 02:04:57;;;;;;;8.32;7.43;;;;;;;18.63;37.20;101601.88;5009776;28;20049;-82
2022/01/30 02:08:25;;;;;;;8.18;7.30;;;;;;;18.63;37.08;101599.19;5010571;28;20046;-83
2022/01/30 02:10:24;;;;;;;10.10;8.45;;;;;;;18.64;37.03;101592.03;5004533;28;20053;-83
2022/01/30 02:12:54;;;;;;;9.80;7.55;;;;;;;18.63;37.25;101585.78;5009390;28;20049;-83
2022/01/30 02:26:02;;;;;;;9.20;7.53;;;;;;;18.64;37.25;101570.59;5009476;28;20081;-81
2022/01/30 02:28:32;;;;;;;10.40;7.22;;;;;;;18.64;37.37;101567.91;5009429;28;20054;-82
2022/01/30 02:31:08;;;;;;;8.02;6.65;;;;;;;18.65;37.33;101572.28;5009963;28;20054;-82
2022/01/30 02:33:35;;;;;;;8.00;7.00;;;;;;;18.65;37.24;101556.22;5009468;28;20061;-82
2022/01/30 02:36:03;;;;;;;8.30;7.18;;;;;;;18.65;37.39;101549.00;5009101;28;20050;-82
2022/01/30 02:38:30;;;;;;;9.93;7.70;;;;;;;18.65;37.47;101543.66;5009102;28;20497;-82
2022/01/30 02:40:58;;;;;;;8.82;7.35;;;;;;;18.65;37.38;101543.66;5009352;28;20443;-82
2022/01/30 02:43:32;;;;;;;8.60;7.00;;;;;;;18.65;37.40;101540.13;5009101;28;20058;-82
2022/01/30 02:46:21;;;;;;;8.68;7.25;;;;;;;18.67;37.44;101543.53;5009419;28;20045;-83
2022/01/30 02:51:21;;;;;;;7.20;6.50;;;;;;;18.67;37.53;101541.69;5009852;28;20061;-83
2022/01/30 02:54:02;;;;;;;7.68;6.88;;;;;;;18.67;37.56;101538.16;5009211;28;20382;-82
2022/01/30 02:56:35;;;;;;;7.53;6.47;;;;;;;18.67;37.67;101530.97;5008799;28;20065;-82
2022/01/30 02:59:03;;;;;;;7.68;6.35;;;;;;;18.68;37.66;101526.50;5010592;28;20409;-83
2022/01/30 03:01:30;;;;;;;7.78;6.55;;;;;;;18.68;37.52;101529.19;5009010;28;20054;-82
2022/01/30 03:03:58;;;;;;;9.40;6.60;;;;;;;18.68;37.53;101513.09;5010774;28;20050;-82
2022/01/30 03:06:27;;;;;;;9.32;5.93;;;;;;;18.68;37.82;101516.63;5008990;28;20411;-82
2022/01/30 03:08:55;;;;;;;7.25;6.50;;;;;;;18.68;37.55;101510.41;5010372;28;20061;-82
2022/01/30 03:11:23;;;;;;;7.82;7.03;;;;;;;18.67;37.46;101525.59;5010488;28;20046;-82
2022/01/30 03:13:51;;;;;;;7.38;6.60;;;;;;;18.67;37.56;101516.69;5008887;28;20054;-82
2022/01/30 03:16:21;;;;;;;7.70;6.55;;;;;;;18.67;37.46;101517.56;5008633;28;20064;-83
2022/01/30 03:18:49;;;;;;;8.25;6.47;;;;;;;18.67;37.51;101514.88;5009868;28;20056;-83
2022/01/30 03:21:19;;;;;;;7.72;6.90;;;;;;;18.66;37.68;101505.13;5012450;28;20057;-83
2022/01/30 03:23:47;;;;;;;7.45;6.47;;;;;;;18.67;37.73;101504.16;5012358;28;20054;-83
2022/01/30 03:26:15;;;;;;;6.78;5.85;;;;;;;18.67;37.58;101505.97;5012285;28;20061;-84
2022/01/30 03:29:06;;;;;;;7.15;6.30;;;;;;;18.66;37.50;101507.81;4972623;28;20059;-84
2022/01/30 03:31:41;;;;;;;6.22;5.63;;;;;;;18.66;37.74;101499.75;4956263;28;20473;-83
2022/01/30 03:34:11;;;;;;;7.10;6.07;;;;;;;18.66;37.60;101507.81;4972388;28;20090;-83
2022/01/30 03:36:50;;;;;;;7.45;5.85;;;;;;;18.65;37.61;101503.41;4972331;28;20051;-83
2022/01/30 03:39:19;;;;;;;8.18;6.50;;;;;;;18.65;37.54;101505.25;4971965;28;20457;-83
2022/01/30 03:41:49;;;;;;;7.20;6.03;;;;;;;18.64;37.56;101520.50;4971544;28;20059;-83
2022/01/30 03:44:19;;;;;;;7.28;5.95;;;;;;;18.64;37.76;101508.91;4956277;28;20055;-83
2022/01/30 03:46:47;;;;;;;6.68;5.97;;;;;;;18.63;37.61;101510.69;4956092;28;20490;-82
2022/01/30 03:49:25;;;;;;;6.72;5.63;;;;;;;18.63;37.75;101507.16;4955766;28;20046;-83
2022/01/30 03:51:53;;;;;;;6.75;5.97;;;;;;;18.63;37.44;101508.03;4972942;28;20418;-82
2022/01/30 03:54:39;;;;;;;6.97;5.93;;;;;;;18.62;37.36;101514.38;4955811;28;20158;-82
2022/01/30 03:57:06;;;;;;;7.50;6.70;;;;;;;18.62;37.42;101503.63;4972122;28;20046;-82
2022/01/30 03:59:36;;;;;;;6.82;6.13;;;;;;;18.64;37.33;101503.53;4955871;28;20118;-82
2022/01/30 04:02:03;;;;;;;7.15;6.05;;;;;;;18.64;37.19;101503.53;4971855;28;20051;-82
2022/01/30 04:04:32;;;;;;;6.03;5.45;;;;;;;18.64;37.21;101503.53;4972942;28;20055;-82
2022/01/30 04:07:02;;;;;;;8.52;6.45;;;;;;;18.65;37.29;101494.53;4999392;28;20115;-82
2022/01/30 04:09:55;;;;;;;7.38;5.45;;;;;;;18.65;37.29;101489.16;5013287;28;20061;-82
2022/01/30 04:12:35;;;;;;;6.53;5.15;;;;;;;18.64;37.11;101493.66;5011643;28;20053;-82
2022/01/30 04:15:07;;;;;;;6.50;5.50;;;;;;;18.65;37.28;101489.16;5013437;28;20377;-82
2022/01/30 04:17:56;;;;;;;6.13;5.53;;;;;;;18.65;37.17;101489.16;5011500;28;20069;-82
2022/01/30 04:20:33;;;;;;;7.57;6.22;;;;;;;18.64;37.21;101490.13;5011903;28;20065;-83
2022/01/30 04:23:12;;;;;;;5.95;5.25;;;;;;;18.65;37.35;101486.47;5019227;28;20042;-82
2022/01/30 04:25:58;;;;;;;6.95;5.72;;;;;;;18.64;37.19;101488.31;5019401;28;20053;-83
2022/01/30 04:28:44;;;;;;;6.90;5.60;;;;;;;18.65;37.15;101481.09;5019847;28;20065;-82
2022/01/30 04:31:32;;;;;;;5.85;5.07;;;;;;;18.65;37.15;101473.06;5011626;28;20045;-83
2022/01/30 04:34:22;;;;;;;5.88;5.15;;;;;;;18.64;37.22;101472.22;4972235;28;20094;-83
2022/01/30 04:37:22;;;;;;;7.40;6.43;;;;;;;18.63;37.24;101467.78;4971347;28;20430;-83
2022/01/30 04:53:41;;;;;;;6.80;5.95;;;;;;;18.63;37.27;101461.56;4974738;28;20127;-82
2022/01/30 05:03:27;;;;;;;6.43;5.75;;;;;;;18.61;37.48;101469.75;4958319;28;20047;-82
2022/01/30 05:06:05;;;;;;;5.43;4.93;;;;;;;18.60;37.41;101464.50;4957735;28;20072;-82
2022/01/30 05:08:52;;;;;;;5.95;5.35;;;;;;;18.60;37.19;101457.31;4957824;28;20063;-82
2022/01/30 05:11:39;;;;;;;6.03;5.43;;;;;;;18.61;37.43;101456.34;4977382;28;20058;-82
2022/01/30 05:14:32;;;;;;;5.78;5.10;;;;;;;18.59;37.42;101452.91;5039196;28;20151;-82
2022/01/30 05:17:18;;;;;;;6.40;5.25;;;;;;;18.59;37.31;101452.91;5076424;28;20115;-82
2022/01/30 05:20:04;;;;;;;5.95;4.75;;;;;;;18.58;37.66;101453.88;5079573;28;20055;-82
2022/01/30 05:22:57;;;;;;;5.47;4.80;;;;;;;18.58;37.68;101459.22;5055576;28;20048;-82
2022/01/30 05:25:32;;;;;;;6.00;4.90;;;;;;;18.56;37.64;101453.16;5055631;28;20404;-82
2022/01/30 05:28:24;;;;;;;5.90;4.88;;;;;;;18.56;37.82;101455.81;5072956;28;20123;-82
2022/01/30 05:31:19;;;;;;;5.57;4.93;;;;;;;18.54;37.80;101444.34;5012165;28;20060;-82
2022/01/30 05:34:07;;;;;;;6.00;5.38;;;;;;;18.53;37.91;101451.53;5011674;28;20058;-83
2022/01/30 05:36:59;;;;;;;5.90;5.30;;;;;;;18.53;37.65;101456.91;5009934;28;20057;-82
2022/01/30 05:39:45;;;;;;;6.78;5.47;;;;;;;18.53;37.96;101448.00;5012850;28;20068;-82
2022/01/30 05:42:45;;;;;;;6.10;5.47;;;;;;;18.53;37.70;101456.03;5072444;28;20059;-83
2022/01/30 05:45:37;;;;;;;5.78;4.82;;;;;;;18.52;37.85;101457.88;5077438;28;20064;-83
2022/01/30 05:48:29;;;;;;;6.82;5.40;;;;;;;18.53;37.56;101458.72;5064367;28;20121;-83
2022/01/30 05:51:23;;;;;;;7.25;5.57;;;;;;;18.52;37.62;101457.03;5032040;28;20065;-83
2022/01/30 05:53:53;;;;;;;6.20;5.60;;;;;;;18.51;37.67;101449.91;5014954;28;20057;-83
2022/01/30 05:56:24;;;;;;;5.97;5.32;;;;;;;18.51;37.62;101456.16;5016120;28;20053;-83
2022/01/30 05:58:53;;;;;;;5.72;5.13;;;;;;;18.52;37.55;101457.03;5015174;28;20102;-83
2022/01/30 06:01:30;;;;;;;5.90;4.93;;;;;;;18.52;37.15;101455.19;5037676;28;20144;-83
2022/01/30 06:04:13;;;;;;;7.03;5.18;;;;;;;18.53;37.48;101446.16;5016236;28;20060;-83
2022/01/30 06:06:49;;;;;;;5.68;5.07;;;;;;;18.53;37.24;101445.31;5014737;28;20049;-83
2022/01/30 06:11:50;;;;;;;6.15;5.07;;;;;;;18.54;37.34;101444.34;5031243;28;20064;-83
2022/01/30 06:14:19;;;;;;;5.90;5.30;;;;;;;18.54;37.34;101433.63;4998515;28;20064;-82
2022/01/30 06:16:47;;;;;;;7.47;5.60;;;;;;;18.54;37.40;101425.56;5015001;28;20052;-82
2022/01/30 06:19:44;;;;;;;5.45;4.70;;;;;;;18.52;37.61;101428.38;4932035;29;20052;-82
2022/01/30 06:22:31;;;;;;;6.65;5.38;;;;;;;18.51;37.83;101429.34;4933588;29;20071;-81
2022/01/30 06:25:17;;;;;;;7.22;5.15;;;;;;;18.52;37.63;101422.16;4924766;29;20059;-81
2022/01/30 06:28:05;;;;;;;5.90;4.90;;;;;;;18.50;37.86;101424.09;4980399;28;20379;-81
2022/01/30 06:30:51;;;;;;;6.85;5.97;;;;;;;18.49;37.90;101407.13;4992897;28;20065;-82
2022/01/30 06:33:37;;;;;;;6.53;5.00;;;;;;;18.50;37.73;101429.44;4994116;28;20151;-81
2022/01/30 06:36:35;;;;;;;7.82;5.63;;;;;;;18.50;37.52;101416.88;4972786;28;20051;-82
2022/01/30 06:39:26;;;;;;;6.25;4.65;;;;;;;18.50;37.75;101416.03;4970814;28;20530;-81
2022/01/30 06:42:13;;;;;;;6.50;4.93;;;;;;;18.50;37.69;101408.84;4971943;28;20430;-81
2022/01/30 06:45:00;;;;;;;7.72;5.50;;;;;;;18.50;37.73;101414.22;4978544;28;20407;-82
2022/01/30 06:47:46;;;;;;;5.82;5.22;;;;;;;18.51;37.61;101409.69;4975691;28;20161;-82
2022/01/30 06:50:32;;;;;;;6.22;5.25;;;;;;;18.51;37.66;101417.75;4973950;28;20160;-81
2022/01/30 06:53:17;;;;;;;7.25;5.05;;;;;;;18.50;37.52;101413.34;4973073;28;20400;-82
2022/01/30 06:56:23;;;;;;;6.13;5.15;;;;;;;18.50;37.74;101416.03;4974103;28;20050;-81
2022/01/30 06:59:23;;;;;;;6.40;5.18;;;;;;;18.49;37.73;101425.91;4934599;29;20062;-81
2022/01/30 07:02:09;;;;;;;6.13;5.38;;;;;;;18.48;37.74;101421.53;4921726;29;20079;-81
2022/01/30 07:05:03;;;;;;;5.93;4.88;;;;;;;18.48;37.63;101418.84;4911262;28;20085;-81
2022/01/30 07:08:05;;;;;;;6.25;5.18;;;;;;;18.48;37.40;101428.72;4837706;29;20073;-81
2022/01/30 07:10:46;;;;;;;7.50;5.38;;;;;;;18.48;37.72;101418.00;4837572;29;20082;-81
2022/01/30 07:13:27;;;;;;;6.15;5.15;;;;;;;18.48;37.63;101434.94;4845875;29;20501;-82
2022/01/30 07:15:54;;;;;;;8.63;5.40;;;;;;;18.48;37.48;101416.16;4872114;29;20058;-81
2022/01/30 07:18:22;;;;;;;7.22;5.10;;;;;;;18.48;37.59;101423.34;4855900;29;20394;-82
2022/01/30 07:20:51;;;;;;;6.10;5.03;;;;;;;18.48;37.80;101415.31;4872620;29;20057;-82
2022/01/30 07:23:18;;;;;;;7.25;5.50;;;;;;;18.48;37.59;101423.34;4855975;29;20057;-81
2022/01/30 07:25:46;;;;;;;6.20;5.38;;;;;;;18.46;37.77;101418.09;4855681;29;20058;-83
2022/01/30 07:28:13;;;;;;;7.45;5.20;;;;;;;18.48;37.56;101415.31;4856205;29;20064;-82
2022/01/30 07:30:40;;;;;;;7.28;5.82;;;;;;;18.46;37.51;101426.13;4856228;29;20421;-82
2022/01/30 07:33:08;;;;;;;5.25;4.75;;;;;;;18.47;37.75;101424.28;4855693;29;20080;-82
2022/01/30 07:35:38;;;;;;;5.95;5.35;;;;;;;18.46;37.77;101419.91;4907360;29;20066;-83
2022/01/30 07:38:05;;;;;;;6.68;5.32;;;;;;;18.47;37.85;101416.25;4914518;28;20060;-82
2022/01/30 07:40:33;;;;;;;6.22;5.32;;;;;;;18.45;37.62;101420.88;4914863;28;20056;-83
2022/01/30 07:43:01;;;;;;;7.95;5.57;;;;;;;18.45;37.60;101420.88;5003326;28;20054;-82
2022/01/30 07:45:30;;;;;;;6.90;6.20;;;;;;;18.45;37.60;101423.56;5008340;28;20417;-83
2022/01/30 07:47:58;;;;;;;5.85;5.25;;;;;;;18.45;37.73;101418.22;5008669;28;20041;-83
2022/01/30 07:50:25;;;;;;;6.07;5.38;;;;;;;18.44;37.81;101419.19;5009847;28;20046;-83
2022/01/30 07:52:52;;;;;;;7.07;6.38;;;;;;;18.43;37.73;101418.34;5010327;28;20049;-84
2022/01/30 07:55:20;;;;;;;6.63;5.93;;;;;;;18.43;37.96;101421.00;5009844;28;20050;-84
2022/01/30 07:57:48;;;;;;;8.30;6.07;;;;;;;18.43;37.44;101421.00;5009743;28;20046;-84
2022/01/30 08:00:17;;;;;;;7.78;6.45;;;;;;;18.43;37.60;101410.28;5009701;28;20057;-84
2022/01/30 08:02:44;;;;;;;7.20;6.13;;;;;;;18.45;37.58;101418.22;5009832;28;20049;-83
2022/01/30 08:05:12;;;;;;;7.40;5.97;;;;;;;18.44;37.57;101414.69;5011121;28;20046;-84
2022/01/30 08:07:39;;;;;;;7.22;6.03;;;;;;;18.45;37.66;101410.16;5012343;28;20042;-84
2022/01/30 08:10:07;;;;;;;7.65;6.05;;;;;;;18.46;37.41;101414.56;5013524;28;20049;-83
2022/01/30 08:12:35;;;;;;;8.63;6.35;;;;;;;18.45;37.56;101413.69;5013370;28;20064;-83
2022/01/30 08:15:03;;;;;;;8.15;6.50;;;;;;;18.44;37.70;101414.69;5013558;28;20049;-83
2022/01/30 08:17:32;;;;;;;7.60;6.15;;;;;;;18.44;37.62;101419.19;5012759;28;20049;-83
2022/01/30 08:20:00;;;;;;;6.55;5.85;;;;;;;18.44;37.51;101411.13;5011375;28;20054;-84
2022/01/30 08:22:29;;;;;;;7.47;5.88;;;;;;;18.44;37.67;101408.47;5013597;28;20497;-84
2022/01/30 08:24:57;;;;;;;8.48;6.22;;;;;;;18.44;37.68;101412.00;5012054;28;20053;-84
2022/01/30 08:27:25;;;;;;;8.02;6.45;;;;;;;18.43;37.70;101418.34;5012619;28;20496;-83
2022/01/30 08:29:52;;;;;;;8.02;6.20;;;;;;;18.42;37.68;101408.56;5012519;28;20485;-83
2022/01/30 08:32:19;;;;;;;7.60;6.50;;;;;;;18.43;37.74;101417.44;5013364;28;20489;-83
2022/01/30 08:34:47;;;;;;;7.80;7.00;;;;;;;18.43;37.84;101421.00;5013375;28;20046;-83
2022/01/30 08:37:14;;;;;;;7.00;6.30;;;;;;;18.42;37.88;101415.75;5012985;28;20492;-83
2022/01/30 08:39:41;;;;;;;7.65;5.80;;;;;;;18.43;37.95;101418.34;5010890;28;20065;-84
2022/01/30 08:42:09;;;;;;;8.55;7.38;;;;;;;18.43;37.72;101410.28;5012921;28;20042;-84
2022/01/30 08:44:36;;;;;;;9.00;6.78;;;;;;;18.44;37.76;101416.50;5012379;28;20053;-83
2022/01/30 08:47:04;;;;;;;7.63;6.82;;;;;;;18.44;37.71;101424.53;5012890;28;20053;-83
2022/01/30 08:49:32;;;;;;;8.05;6.32;;;;;;;18.45;38.00;101426.25;5013078;28;20466;-83
2022/01/30 08:51:59;;;;;;;7.97;7.18;;;;;;;18.44;38.08;101438.81;5013038;28;20050;-82
2022/01/30 08:54:26;;;;;;;8.23;7.35;;;;;;;18.44;38.04;101438.81;5012776;28;20042;-82
2022/01/30 08:56:54;;;;;;;8.52;7.00;;;;;;;18.45;38.03;101442.34;5012277;28;20034;-82
2022/01/30 08:59:21;;;;;;;7.35;6.50;;;;;;;18.45;38.15;101439.66;5012132;28;20057;-82
2022/01/30 09:01:49;;;;;;;8.85;7.07;;;;;;;18.41;38.25;101452.41;5012256;28;20116;-81
2022/01/30 09:04:18;;;;;;;7.00;6.22;;;;;;;18.40;38.31;101447.19;5012685;28;20046;-84
2022/01/30 09:06:45;;;;;;;6.97;6.30;;;;;;;18.37;38.53;101442.03;5012649;28;20046;-81
2022/01/30 09:09:12;;;;;;;8.18;7.20;;;;;;;18.36;38.66;101441.19;5012599;28;20052;-81
2022/01/30 09:11:40;;;;;;;9.80;7.60;;;;;;;18.35;38.76;101444.84;5012319;28;20090;-82
2022/01/30 09:14:08;;;;;;;14.25;7.32;;;;;;;18.34;39.66;101442.25;5012314;28;20046;-83
2022/01/30 09:16:35;;;;;;;9.65;6.88;;;;;;;18.32;40.26;101433.47;5011198;28;20038;-82
2022/01/30 09:19:21;;;;;;;12.77;7.32;;;;;;;18.32;40.39;101446.88;5012078;28;20377;-81
2022/01/30 09:21:48;;;;;;;9.15;7.40;;;;;;;18.32;40.09;101438.84;5011928;28;20053;-86
2022/01/30 09:24:16;;;;;;;10.55;7.85;;;;;;;18.31;39.83;101437.97;5010297;28;20053;-82
2022/01/30 09:26:43;;;;;;;8.77;6.93;;;;;;;18.30;39.61;101428.22;5011672;28;20393;-82
2022/01/30 09:29:11;;;;;;;15.23;12.48;;;;;;;18.24;38.54;101432.19;5010103;28;20053;-82
2022/01/30 09:31:58;;;;;;;12.38;10.68;;;;;;;18.21;39.31;101436.91;5010846;28;20065;-81
2022/01/30 09:34:26;;;;;;;13.88;11.85;;;;;;;18.20;38.98;101438.75;5011910;28;20054;-83
2022/01/30 09:36:54;;;;;;;23.23;17.60;;;;;;;18.17;38.22;101441.63;5010338;28;20371;-81
2022/01/30 09:39:23;;;;;;;25.98;20.27;;;;;;;18.11;37.99;101441.19;5011564;28;20058;-86
2022/01/30 09:41:52;;;;;;;27.67;20.77;;;;;;;18.03;37.58;101445.31;5011525;28;20046;-86
2022/01/30 09:44:20;;;;;;;26.33;21.30;;;;;;;17.97;37.85;101443.03;5011083;28;20042;-84
2022/01/30 09:46:50;;;;;;;24.52;20.17;;;;;;;17.94;38.42;101445.06;5011293;28;20042;-82
2022/01/30 09:49:26;;;;;;;21.70;17.33;;;;;;;17.93;38.76;101446.06;5011368;28;20512;-81
2022/01/30 09:51:55;;;;;;;20.00;15.30;;;;;;;17.93;38.81;101443.38;5011756;28;20050;-81
2022/01/30 09:54:22;;;;;;;19.88;16.80;;;;;;;17.93;39.10;101446.06;5010080;28;20487;-84
2022/01/30 09:56:50;;;;;;;20.52;16.65;;;;;;;17.93;38.47;101440.69;5010424;28;20050;-82
2022/01/30 09:59:17;;;;;;;15.07;12.15;;;;;;;17.96;39.94;101448.53;5010307;28;20139;-84
2022/01/30 10:01:44;;;;;;;18.17;12.95;;;;;;;17.99;40.07;101438.44;5011237;28;20050;-83
2022/01/30 10:04:12;;;;;;;16.88;11.45;;;;;;;18.03;40.15;101436.41;5011541;28;20401;-83
2022/01/30 10:07:00;;;;;;;14.93;11.10;;;;;;;18.08;40.00;101438.75;5011369;28;20042;-83
2022/01/30 10:09:34;;;;;;;15.27;10.88;;;;;;;18.09;39.91;101441.31;5011066;28;20046;-84
2022/01/30 10:12:16;;;;;;;13.73;10.10;;;;;;;18.12;40.00;101441.13;5011680;28;20046;-83
2022/01/30 10:15:07;;;;;;;12.80;9.57;;;;;;;18.15;39.94;101448.94;5011282;28;20073;-83
2022/01/30 10:17:48;;;;;;;14.20;9.38;;;;;;;18.16;39.95;101439.06;5011788;28;20382;-84
2022/01/30 10:20:38;;;;;;;15.38;9.30;;;;;;;18.18;40.12;101446.03;5009727;28;20058;-85
2022/01/30 10:23:09;;;;;;;10.27;9.05;;;;;;;18.19;40.04;101445.06;5011639;28;20046;-84
2022/01/30 10:25:48;;;;;;;11.55;8.48;;;;;;;18.21;40.02;101429.72;5010013;28;20482;-84
2022/01/30 10:28:28;;;;;;;13.80;8.85;;;;;;;18.25;39.88;101433.03;5010753;28;20053;-84
2022/01/30 10:31:02;;;;;;;14.63;8.50;;;;;;;18.27;39.82;101429.31;5011593;28;20053;-91
2022/01/30 10:33:49;;;;;;;11.52;7.32;;;;;;;18.29;39.81;101430.03;5010233;28;20065;-82
2022/01/30 10:36:29;;;;;;;9.43;7.55;;;;;;;18.31;39.69;101434.41;5011737;28;20402;-84
2022/01/30 10:39:13;;;;;;;12.70;8.27;;;;;;;18.33;40.14;101421.78;5006201;28;20058;-86
2022/01/30 10:41:45;;;;;;;9.77;7.72;;;;;;;18.37;40.29;101431.31;4991330;28;20050;-84
2022/01/30 10:44:13;;;;;;;9.27;7.45;;;;;;;18.36;40.63;101414.38;4991682;28;20057;-85
2022/01/30 10:46:44;;;;;;;10.68;7.45;;;;;;;18.36;40.63;101414.38;4992593;28;20053;-84
2022/01/30 10:49:13;;;;;;;9.85;6.93;;;;;;;18.38;40.29;101416.94;4992066;28;20051;-86
2022/01/30 10:51:57;;;;;;;10.00;7.03;;;;;;;18.39;40.56;101415.97;4992082;28;20105;-84
2022/01/30 10:54:29;;;;;;;9.60;7.32;;;;;;;18.42;40.61;101405.03;5010365;28;20051;-83
2022/01/30 10:57:09;;;;;;;10.05;7.53;;;;;;;18.42;40.34;101408.56;5022655;28;20046;-83
2022/01/30 10:59:43;;;;;;;13.40;8.13;;;;;;;18.44;40.21;101403.94;5010647;28;20049;-82
2022/01/30 11:02:21;;;;;;;9.07;6.70;;;;;;;18.45;40.14;101402.13;5012587;28;20054;-83
2022/01/30 11:05:00;;;;;;;12.93;7.45;;;;;;;18.44;40.05;101395.91;5010517;28;20397;-85
2022/01/30 11:07:30;;;;;;;10.50;7.75;;;;;;;18.45;39.86;101391.41;5012207;28;20042;-84
2022/01/30 11:10:11;;;;;;;10.70;6.68;;;;;;;18.43;39.79;101379.91;5011501;28;20050;-83
2022/01/30 11:12:56;;;;;;;13.15;9.57;;;;;;;18.40;39.56;101369.44;5011263;28;20049;-85
2022/01/30 11:17:59;;;;;;;11.48;8.27;;;;;;;18.37;41.05;101364.28;5012714;28;20057;-83
2022/01/30 11:20:30;;;;;;;11.65;7.78;;;;;;;18.38;42.98;101374.91;5012304;28;20049;-86
2022/01/30 11:23:01;;;;;;;14.20;7.78;;;;;;;18.40;43.63;101367.63;5011806;28;20378;-84
2022/01/30 11:25:33;;;;;;;13.85;8.38;;;;;;;18.44;43.33;101371.78;5012115;28;20049;-88
2022/01/30 11:28:04;;;;;;;14.50;8.52;;;;;;;18.45;43.58;101359.22;5009743;28;20046;-86
2022/01/30 11:30:50;;;;;;;12.30;7.65;;;;;;;18.43;43.60;101362.03;5011994;28;20042;-85
2022/01/30 11:33:18;;;;;;;13.90;8.27;;;;;;;18.43;43.59;101354.00;5011852;28;20057;-91
2022/01/30 11:35:46;;;;;;;9.13;7.80;;;;;;;18.44;43.29;101336.94;5010694;28;20092;-86
2022/01/30 11:38:14;;;;;;;9.77;7.22;;;;;;;18.45;42.93;101343.13;5023030;28;20041;-85
2022/01/30 11:40:41;;;;;;;12.68;8.60;;;;;;;18.40;41.87;101339.94;5017252;28;20040;-85
2022/01/30 11:43:09;;;;;;;12.15;8.68;;;;;;;18.39;42.21;101341.78;5012065;28;20049;-84
2022/01/30 11:45:36;;;;;;;13.90;9.48;;;;;;;18.39;42.05;101336.41;5008755;28;20058;-83
2022/01/30 11:48:13;;;;;;;11.70;9.00;;;;;;;18.40;41.94;101339.94;5010379;28;20409;-80
2022/01/30 11:50:42;;;;;;;10.73;8.00;;;;;;;18.42;41.94;101341.53;5014418;28;20045;-84
2022/01/30 11:53:11;;;;;;;11.55;8.82;;;;;;;18.42;42.05;101330.81;5014898;28;20049;-81
2022/01/30 11:56:01;;;;;;;10.40;7.97;;;;;;;18.43;42.05;101323.63;5012845;28;20041;-83
2022/01/30 11:58:47;;;;;;;9.63;7.95;;;;;;;18.46;41.99;101312.69;5012876;28;20045;-85
2022/01/30 12:01:37;;;;;;;15.32;8.40;;;;;;;18.46;42.19;101310.00;4993002;28;20061;-83
2022/01/30 12:04:10;;;;;;;12.82;7.65;;;;;;;18.46;41.92;101296.59;4994897;28;20051;-82
2022/01/30 12:06:40;;;;;;;13.88;7.78;;;;;;;18.46;41.82;101300.13;4993930;28;20517;-88
2022/01/30 12:09:20;;;;;;;10.93;8.00;;;;;;;18.47;41.59;101295.59;4994399;28;20057;-85
2022/01/30 12:11:47;;;;;;;9.15;7.28;;;;;;;18.49;41.51;101293.69;4994411;28;20047;-86
2022/01/30 12:14:21;;;;;;;11.30;7.18;;;;;;;18.50;41.54;101287.34;4994708;28;20494;-86
2022/01/30 12:16:56;;;;;;;10.70;7.43;;;;;;;18.53;41.24;101282.63;4994976;28;20046;-84
2022/01/30 12:19:47;;;;;;;8.95;6.38;;;;;;;18.55;41.24;101274.44;4994566;28;20398;-85
2022/01/30 12:22:23;;;;;;;9.35;7.18;;;;;;;18.56;41.21;101264.59;4994708;28;20402;-84
2022/01/30 12:24:52;;;;;;;12.02;7.95;;;;;;;18.56;41.18;101260.09;4997510;28;20458;-84
2022/01/30 12:27:20;;;;;;;11.07;6.63;;;;;;;18.55;40.99;101258.34;5117358;28;20487;-84
2022/01/30 12:29:50;;;;;;;11.60;6.97;;;;;;;18.55;41.30;101250.31;5116357;28;20050;-84
2022/01/30 12:32:21;;;;;;;14.38;6.70;;;;;;;18.55;41.23;101247.63;5094942;28;20050;-86
2022/01/30 12:34:54;;;;;;;9.35;7.15;;;;;;;18.56;41.28;101252.03;5014047;28;20049;-85
2022/01/30 12:37:24;;;;;;;9.63;6.53;;;;;;;18.56;41.26;101251.19;5012580;28;20050;-86
2022/01/30 12:39:52;;;;;;;10.10;6.10;;;;;;;18.57;41.16;101242.16;4994159;28;20057;-85
2022/01/30 12:42:21;;;;;;;11.65;6.45;;;;;;;18.57;41.13;101243.03;4994364;28;20065;-86
2022/01/30 12:44:49;;;;;;;10.20;6.68;;;;;;;18.58;41.15;101239.34;4994039;28;20058;-84
2022/01/30 12:47:20;;;;;;;8.40;6.03;;;;;;;18.59;40.98;101222.28;5002849;28;20508;-83
2022/01/30 12:49:52;;;;;;;8.07;5.57;;;;;;;18.60;40.92;101224.03;4999012;28;20496;-87
2022/01/30 12:52:46;;;;;;;7.28;5.78;;;;;;;18.62;40.72;101227.44;4991599;28;20050;-84
2022/01/30 12:55:12;;;;;;;9.65;6.28;;;;;;;18.63;40.85;101212.19;4992515;28;20058;-85